Brian O'daniels — WDD7438 — position and weather

sailwx.info

Track history (hours):
 
Tides and Currents Weather Stations Pressure Air Temp Water Temp Dewpoint Dewpoint Depression Visibility Wind Speed Wind Dir Waves Ship Positions

Brian O'daniels

Owner: Florida Marine, LLC, Mandeville, LA. More information available from US FCC via Universal Licensing System and Coast Guard Vessel Documentation Center.

Last reported at 2017-Sep-20 15:37 UTC. Time now 2017-Sep-25 11:47 UTC.
Position N 30°03' W 093°43'.

Length 26 m; draft 2.7 m.

Type: Towing. MMSI: 367186410.

Date/timePositionNaut miles runAvg speedWind from/ knotsBaromVisibWave heightAir tempDewpointWater temp
2017-Sep-20 15:37N 30°03' W 093°43'1 4.7
2017-Sep-20 15:28N 30°03' W 093°42'2 3.4
2017-Sep-20 14:58N 30°04' W 093°40'4 4.0
2017-Sep-20 14:00N 30°04' W 093°36'2 4.6
2017-Sep-20 13:31N 30°04' W 093°33'2 4.7
2017-Sep-20 13:01N 30°04' W 093°30'2 4.7
2017-Sep-20 12:31N 30°04' W 093°27'2 4.8
2017-Sep-20 12:01N 30°04' W 093°25'2 4.7
2017-Sep-20 11:30N 30°04' W 093°22'2 3.4
2017-Sep-20 11:01N 30°05' W 093°20'2 4.2
2017-Sep-20 10:31N 30°06' W 093°19'2 3.7
2017-Sep-20 10:00N 30°05' W 093°17'1 2.7
2017-Sep-20 09:28N 30°04' W 093°16'0 0.7
2017-Sep-20 08:58N 30°04' W 093°16'0 0.1
2017-Sep-20 08:28N 30°04' W 093°16'0 0.0
2017-Sep-20 07:58N 30°04' W 093°16'0 0.2
2017-Sep-20 07:28N 30°03' W 093°16'1 2.1
2017-Sep-20 07:01N 30°02' W 093°16'2 4.5
2017-Sep-20 06:30N 30°01' W 093°14'2 4.9
2017-Sep-20 06:01N 29°59' W 093°12'2 4.7
2017-Sep-20 05:31N 29°57' W 093°10'2 4.2
2017-Sep-20 05:01N 29°56' W 093°08'2 4.6
2017-Sep-20 04:30N 29°56' W 093°05'39 4.5
2017-Sep-19 19:53N 29°51' W 092°21'2 3.9
2017-Sep-19 19:30N 29°50' W 092°19'2 3.9
2017-Sep-19 19:00N 29°49' W 092°17'2 4.2
2017-Sep-19 18:30N 29°48' W 092°15'2 4.5
2017-Sep-19 18:01N 29°47' W 092°13'2 3.7
2017-Sep-19 17:31N 29°47' W 092°11'1 1.5
2017-Sep-19 16:59N 29°47' W 092°10'0 0.3
2017-Sep-19 16:28N 29°47' W 092°10'0 0.3
2017-Sep-19 15:59N 29°47' W 092°10'2 4.2
2017-Sep-19 15:30N 29°47' W 092°08'2 4.7
2017-Sep-19 15:00N 29°48' W 092°05'2 4.5
2017-Sep-19 14:30N 29°49' W 092°03'2 4.7
2017-Sep-19 14:00N 29°50' W 092°00'  
2017-Sep-12 19:28N 29°33' W 090°26'2 5.1
2017-Sep-12 18:59N 29°34' W 090°29'2 5.0
2017-Sep-12 18:30N 29°34' W 090°32'2 4.8
2017-Sep-12 18:00N 29°34' W 090°34'2 4.6
2017-Sep-12 17:31N 29°35' W 090°37'2 4.9
2017-Sep-12 17:01N 29°36' W 090°39'2 4.6
2017-Sep-12 16:31N 29°37' W 090°42'2 3.3
2017-Sep-12 16:00N 29°35' W 090°43'2 3.3
2017-Sep-12 15:31N 29°34' W 090°44'1 2.5
2017-Sep-12 14:58N 29°33' W 090°45'1 1.8
2017-Sep-12 14:30N 29°33' W 090°45'1 2.7
2017-Sep-12 14:01N 29°32' W 090°47'2 3.9
2017-Sep-12 13:30N 29°32' W 090°49'2 4.3
2017-Sep-12 13:00N 29°32' W 090°52'2 4.8
2017-Sep-12 12:30N 29°33' W 090°54'61 2.3
2017-Sep-11 09:32N 29°49' W 092°02'0 5.4
2017-Sep-11 09:28N 29°49' W 092°02'2 5.2
2017-Sep-11 09:00N 29°48' W 092°05'3 5.3
2017-Sep-11 08:29N 29°47' W 092°08'2 4.9
2017-Sep-11 08:00N 29°47' W 092°10'3 4.9
2017-Sep-11 07:29N 29°47' W 092°13'2 4.9
2017-Sep-11 06:59N 29°48' W 092°16'2 4.9
2017-Sep-11 06:30N 29°50' W 092°18'3 4.9
2017-Sep-11 05:56N 29°51' W 092°21'37 4.7
2017-Sep-10 22:03N 29°56' W 093°03'1 4.3
2017-Sep-10 21:51N 29°56' W 093°04'1 4.2
2017-Sep-10 21:30N 29°56' W 093°06'2 4.5
2017-Sep-10 21:00N 29°56' W 093°08'2 4.2
2017-Sep-10 20:30N 29°57' W 093°10'2 4.8
2017-Sep-10 20:00N 29°59' W 093°12'2 4.3
2017-Sep-10 19:30N 30°01' W 093°14'1 2.1
2017-Sep-10 18:59N 30°02' W 093°14'0 0.7
2017-Sep-10 18:29N 30°02' W 093°15'1 2.4
2017-Sep-10 18:00N 30°02' W 093°16'2 3.2
2017-Sep-10 17:29N 30°04' W 093°16'0 0.0
2017-Sep-10 16:59N 30°04' W 093°16'0 0.0
2017-Sep-10 16:29N 30°04' W 093°16'0 0.1
2017-Sep-10 15:59N 30°04' W 093°16'  
Track history (hours):
 
Tides and Currents Weather Stations Pressure Air Temp Water Temp Dewpoint Dewpoint Depression Visibility Wind Speed Wind Dir Waves Ship Positions

Brian O'daniels

Owner: Florida Marine, LLC, Mandeville, LA. More information available from US FCC via Universal Licensing System and Coast Guard Vessel Documentation Center.

Last reported at 2017-Sep-20 15:37 UTC. Time now 2017-Sep-25 11:47 UTC.
Position N 30°03' W 093°43'.

Length 26 m; draft 2.7 m.

Type: Towing. MMSI: 367186410.

Date/timePositionNaut miles runAvg speedWind from/ knotsBaromVisibWave heightAir tempDewpointWater temp
2017-Sep-20 15:37N 30°03' W 093°43'1 4.7
2017-Sep-20 15:28N 30°03' W 093°42'2 3.4
2017-Sep-20 14:58N 30°04' W 093°40'4 4.0
2017-Sep-20 14:00N 30°04' W 093°36'2 4.6
2017-Sep-20 13:31N 30°04' W 093°33'2 4.7
2017-Sep-20 13:01N 30°04' W 093°30'2 4.7
2017-Sep-20 12:31N 30°04' W 093°27'2 4.8
2017-Sep-20 12:01N 30°04' W 093°25'2 4.7
2017-Sep-20 11:30N 30°04' W 093°22'2 3.4
2017-Sep-20 11:01N 30°05' W 093°20'2 4.2
2017-Sep-20 10:31N 30°06' W 093°19'2 3.7
2017-Sep-20 10:00N 30°05' W 093°17'1 2.7
2017-Sep-20 09:28N 30°04' W 093°16'0 0.7
2017-Sep-20 08:58N 30°04' W 093°16'0 0.1
2017-Sep-20 08:28N 30°04' W 093°16'0 0.0
2017-Sep-20 07:58N 30°04' W 093°16'0 0.2
2017-Sep-20 07:28N 30°03' W 093°16'1 2.1
2017-Sep-20 07:01N 30°02' W 093°16'2 4.5
2017-Sep-20 06:30N 30°01' W 093°14'2 4.9
2017-Sep-20 06:01N 29°59' W 093°12'2 4.7
2017-Sep-20 05:31N 29°57' W 093°10'2 4.2
2017-Sep-20 05:01N 29°56' W 093°08'2 4.6
2017-Sep-20 04:30N 29°56' W 093°05'39 4.5
2017-Sep-19 19:53N 29°51' W 092°21'2 3.9
2017-Sep-19 19:30N 29°50' W 092°19'2 3.9
2017-Sep-19 19:00N 29°49' W 092°17'2 4.2
2017-Sep-19 18:30N 29°48' W 092°15'2 4.5
2017-Sep-19 18:01N 29°47' W 092°13'2 3.7
2017-Sep-19 17:31N 29°47' W 092°11'1 1.5
2017-Sep-19 16:59N 29°47' W 092°10'0 0.3
2017-Sep-19 16:28N 29°47' W 092°10'0 0.3
2017-Sep-19 15:59N 29°47' W 092°10'2 4.2
2017-Sep-19 15:30N 29°47' W 092°08'2 4.7
2017-Sep-19 15:00N 29°48' W 092°05'2 4.5
2017-Sep-19 14:30N 29°49' W 092°03'2 4.7
2017-Sep-19 14:00N 29°50' W 092°00'  
2017-Sep-12 19:28N 29°33' W 090°26'2 5.1
2017-Sep-12 18:59N 29°34' W 090°29'2 5.0
2017-Sep-12 18:30N 29°34' W 090°32'2 4.8
2017-Sep-12 18:00N 29°34' W 090°34'2 4.6
2017-Sep-12 17:31N 29°35' W 090°37'2 4.9
2017-Sep-12 17:01N 29°36' W 090°39'2 4.6
2017-Sep-12 16:31N 29°37' W 090°42'2 3.3
2017-Sep-12 16:00N 29°35' W 090°43'2 3.3
2017-Sep-12 15:31N 29°34' W 090°44'1 2.5
2017-Sep-12 14:58N 29°33' W 090°45'1 1.8
2017-Sep-12 14:30N 29°33' W 090°45'1 2.7
2017-Sep-12 14:01N 29°32' W 090°47'2 3.9
2017-Sep-12 13:30N 29°32' W 090°49'2 4.3
2017-Sep-12 13:00N 29°32' W 090°52'2 4.8
2017-Sep-12 12:30N 29°33' W 090°54'61 2.3
2017-Sep-11 09:32N 29°49' W 092°02'0 5.4
2017-Sep-11 09:28N 29°49' W 092°02'2 5.2
2017-Sep-11 09:00N 29°48' W 092°05'3 5.3
2017-Sep-11 08:29N 29°47' W 092°08'2 4.9
2017-Sep-11 08:00N 29°47' W 092°10'3 4.9
2017-Sep-11 07:29N 29°47' W 092°13'2 4.9
2017-Sep-11 06:59N 29°48' W 092°16'2 4.9
2017-Sep-11 06:30N 29°50' W 092°18'3 4.9
2017-Sep-11 05:56N 29°51' W 092°21'37 4.7
2017-Sep-10 22:03N 29°56' W 093°03'1 4.3
2017-Sep-10 21:51N 29°56' W 093°04'1 4.2
2017-Sep-10 21:30N 29°56' W 093°06'2 4.5
2017-Sep-10 21:00N 29°56' W 093°08'2 4.2
2017-Sep-10 20:30N 29°57' W 093°10'2 4.8
2017-Sep-10 20:00N 29°59' W 093°12'2 4.3
2017-Sep-10 19:30N 30°01' W 093°14'1 2.1
2017-Sep-10 18:59N 30°02' W 093°14'0 0.7
2017-Sep-10 18:29N 30°02' W 093°15'1 2.4
2017-Sep-10 18:00N 30°02' W 093°16'2 3.2
2017-Sep-10 17:29N 30°04' W 093°16'0 0.0
2017-Sep-10 16:59N 30°04' W 093°16'0 0.0
2017-Sep-10 16:29N 30°04' W 093°16'0 0.1
2017-Sep-10 15:59N 30°04' W 093°16'  

Dump ship's entire track history